Time;durP1;ratioP1;P1;durP2;ratioP2;P2;SDS_P1;SDS_P2;PMS_P1;PMS_P2;Temp;Humidity;BMP_temperature;BMP_pressure;BME280_temperature;BME280_humidity;BME280_pressure;Samples;Min_cycle;Max_cycle;Signal;HPM_P1;HPM_P2
2023/10/11 00:02:19;;;;;;;6.25;2.60;;;;;;;;;;5024575;28;20026;-73
2023/10/11 00:04:48;;;;;;;6.00;2.58;;;;;;;;;;5020680;28;20111;-73
2023/10/11 00:07:18;;;;;;;5.18;2.40;;;;;;;;;;5025094;28;20021;-73
2023/10/11 00:09:44;;;;;;;7.18;1.98;;;;;;;;;;5024393;28;20466;-73
2023/10/11 00:12:11;;;;;;;4.50;2.30;;;;;;;;;;5027087;28;20047;-73
2023/10/11 00:14:42;;;;;;;3.17;2.20;;;;;;;;;;5020264;28;20049;-73
2023/10/11 00:17:09;;;;;;;5.22;2.65;;;;;;;;;;5026368;28;20053;-73
2023/10/11 00:19:39;;;;;;;4.57;2.00;;;;;;;;;;5023763;28;20026;-72
2023/10/11 00:22:06;;;;;;;2.78;2.03;;;;;;;;;;5021845;28;20426;-73
2023/10/11 00:24:32;;;;;;;3.47;2.20;;;;;;;;;;5022937;28;20537;-72
2023/10/11 00:26:59;;;;;;;5.70;2.38;;;;;;;;;;5024812;28;20053;-73
2023/10/11 00:29:26;;;;;;;7.70;2.30;;;;;;;;;;5026731;28;20021;-73
2023/10/11 00:31:52;;;;;;;5.18;3.10;;;;;;;;;;5033137;28;20309;-75
2023/10/11 00:34:21;;;;;;;4.22;2.33;;;;;;;;;;5027337;28;20151;-73
2023/10/11 00:36:49;;;;;;;3.05;2.30;;;;;;;;;;5020413;28;20033;-73
2023/10/11 00:39:18;;;;;;;2.83;2.08;;;;;;;;;;5024021;28;20017;-73
2023/10/11 00:41:48;;;;;;;5.47;1.98;;;;;;;;;;5026483;28;20049;-73
2023/10/11 00:44:19;;;;;;;5.25;2.42;;;;;;;;;;5023094;28;20041;-65
2023/10/11 00:49:20;;;;;;;3.28;2.20;;;;;;;;;;5022302;28;20033;-64
2023/10/11 00:51:47;;;;;;;4.20;2.35;;;;;;;;;;5025508;28;20071;-66
2023/10/11 00:54:15;;;;;;;5.22;2.58;;;;;;;;;;5017371;28;20029;-65
2023/10/11 00:56:43;;;;;;;5.90;2.63;;;;;;;;;;5026131;28;20036;-64
2023/10/11 00:59:10;;;;;;;6.60;2.58;;;;;;;;;;5020376;28;20025;-65
2023/10/11 01:01:40;;;;;;;5.15;2.58;;;;;;;;;;5023688;28;20048;-65
2023/10/11 01:04:09;;;;;;;6.00;2.53;;;;;;;;;;5022172;28;20076;-64
2023/10/11 01:06:35;;;;;;;4.18;2.65;;;;;;;;;;5015404;28;20051;-73
2023/10/11 01:09:08;;;;;;;6.07;2.85;;;;;;;;;;5023813;28;20779;-73
2023/10/11 01:11:36;;;;;;;5.43;2.85;;;;;;;;;;5021652;28;20044;-74
2023/10/11 01:14:02;;;;;;;11.30;2.97;;;;;;;;;;5021238;28;20061;-74
2023/10/11 01:16:28;;;;;;;5.30;2.70;;;;;;;;;;5022263;28;20148;-73
2023/10/11 01:18:54;;;;;;;6.78;3.65;;;;;;;;;;5027017;28;20056;-73
2023/10/11 01:21:21;;;;;;;5.53;2.83;;;;;;;;;;5028573;28;21047;-73
2023/10/11 01:23:48;;;;;;;5.75;2.75;;;;;;;;;;5014220;28;20033;-73
2023/10/11 01:26:15;;;;;;;6.35;2.58;;;;;;;;;;5019434;28;20038;-73
2023/10/11 01:28:51;;;;;;;3.83;3.08;;;;;;;;;;5025034;28;20042;-74
2023/10/11 01:31:17;;;;;;;9.85;3.40;;;;;;;;;;5019929;28;20045;-73
2023/10/11 01:33:49;;;;;;;4.20;3.00;;;;;;;;;;5020297;28;20091;-73
2023/10/11 01:36:15;;;;;;;9.13;2.70;;;;;;;;;;5023743;28;20064;-73
2023/10/11 01:38:48;;;;;;;5.20;2.45;;;;;;;;;;5017436;28;20111;-74
2023/10/11 01:41:20;;;;;;;6.95;2.75;;;;;;;;;;5020715;28;20577;-73
2023/10/11 01:43:47;;;;;;;7.35;3.80;;;;;;;;;;5022767;28;20061;-74
2023/10/11 01:46:15;;;;;;;4.50;2.85;;;;;;;;;;5023447;28;20029;-73
2023/10/11 01:48:42;;;;;;;6.15;2.50;;;;;;;;;;5020445;28;20125;-73
2023/10/11 01:51:09;;;;;;;4.60;2.75;;;;;;;;;;5020081;28;20025;-73
2023/10/11 01:53:38;;;;;;;6.57;3.10;;;;;;;;;;5046763;28;20033;-73
2023/10/11 01:56:05;;;;;;;5.22;2.90;;;;;;;;;;5025318;28;20029;-73
2023/10/11 01:58:31;;;;;;;6.32;2.50;;;;;;;;;;5023301;28;20036;-73
2023/10/11 02:00:57;;;;;;;8.00;2.70;;;;;;;;;;5024550;28;20037;-73
2023/10/11 02:03:24;;;;;;;6.88;2.45;;;;;;;;;;5023174;28;20029;-73
2023/10/11 02:05:53;;;;;;;5.35;2.40;;;;;;;;;;5016138;28;20145;-73
2023/10/11 02:08:19;;;;;;;4.90;2.83;;;;;;;;;;5016061;28;20027;-73
2023/10/11 02:10:45;;;;;;;5.30;3.20;;;;;;;;;;5024035;28;20105;-73
2023/10/11 02:13:12;;;;;;;6.32;2.92;;;;;;;;;;5023076;28;20507;-73
2023/10/11 02:15:40;;;;;;;7.68;2.92;;;;;;;;;;5023360;28;20105;-73
2023/10/11 02:18:10;;;;;;;6.22;3.00;;;;;;;;;;5053436;28;20040;-75
2023/10/11 02:20:45;;;;;;;5.72;2.95;;;;;;;;;;5023244;28;20409;-66
2023/10/11 02:23:11;;;;;;;8.50;2.67;;;;;;;;;;5023098;28;20037;-66
2023/10/11 02:25:38;;;;;;;5.05;3.08;;;;;;;;;;5021082;28;20034;-66
2023/10/11 02:28:09;;;;;;;6.82;2.95;;;;;;;;;;5022892;28;20021;-65
2023/10/11 02:30:38;;;;;;;8.10;3.67;;;;;;;;;;5053759;28;20057;-65
2023/10/11 02:33:07;;;;;;;6.97;3.55;;;;;;;;;;5023766;28;20533;-64
2023/10/11 02:35:53;;;;;;;3.88;2.60;;;;;;;;;;5020603;28;20037;-65
2023/10/11 02:38:23;;;;;;;5.63;2.58;;;;;;;;;;5015653;28;20090;-65
2023/10/11 02:40:55;;;;;;;8.80;3.42;;;;;;;;;;5017265;28;20065;-66
2023/10/11 02:43:25;;;;;;;6.43;2.83;;;;;;;;;;5046475;28;20038;-66
2023/10/11 02:45:52;;;;;;;7.28;3.10;;;;;;;;;;5020302;28;20025;-67
2023/10/11 02:48:21;;;;;;;5.00;2.58;;;;;;;;;;5024351;28;20032;-66
2023/10/11 02:50:48;;;;;;;5.88;2.63;;;;;;;;;;5018074;28;20029;-65
2023/10/11 02:53:21;;;;;;;10.18;2.80;;;;;;;;;;5012589;28;20643;-66
2023/10/11 02:56:05;;;;;;;4.40;2.58;;;;;;;;;;5023473;28;20025;-66
2023/10/11 02:58:31;;;;;;;5.55;2.95;;;;;;;;;;5019360;28;20041;-66
2023/10/11 03:01:05;;;;;;;5.15;2.58;;;;;;;;;;5017965;28;20025;-66
2023/10/11 03:03:38;;;;;;;7.32;2.90;;;;;;;;;;5022742;28;20061;-65
2023/10/11 03:06:08;;;;;;;5.00;2.70;;;;;;;;;;5022256;28;20018;-65
2023/10/11 03:08:34;;;;;;;4.97;2.47;;;;;;;;;;5012606;28;20049;-66
2023/10/11 03:11:04;;;;;;;5.13;2.53;;;;;;;;;;5025186;28;20030;-66
2023/10/11 03:13:32;;;;;;;5.07;2.72;;;;;;;;;;5026891;28;20537;-66
2023/10/11 03:15:59;;;;;;;4.35;2.60;;;;;;;;;;5027107;28;20021;-65
2023/10/11 03:18:26;;;;;;;4.28;2.58;;;;;;;;;;5027118;28;20041;-65
2023/10/11 03:21:09;;;;;;;4.18;2.60;;;;;;;;;;5022629;28;20504;-66
2023/10/11 03:23:45;;;;;;;5.97;2.70;;;;;;;;;;5022012;28;20382;-65
2023/10/11 03:26:22;;;;;;;4.45;2.42;;;;;;;;;;5024841;28;20032;-66
2023/10/11 03:28:58;;;;;;;5.07;2.70;;;;;;;;;;5026857;28;20029;-66
2023/10/11 03:31:34;;;;;;;5.65;2.95;;;;;;;;;;5026716;28;20606;-66
2023/10/11 03:34:01;;;;;;;3.50;2.45;;;;;;;;;;5024293;28;20099;-66
2023/10/11 03:36:43;;;;;;;4.38;2.75;;;;;;;;;;5024798;28;20638;-66
2023/10/11 03:39:10;;;;;;;4.85;2.20;;;;;;;;;;5022753;28;20037;-66
2023/10/11 03:41:36;;;;;;;4.90;2.53;;;;;;;;;;5025308;28;20053;-65
2023/10/11 03:44:17;;;;;;;5.07;2.70;;;;;;;;;;5025701;28;20308;-66
2023/10/11 03:46:47;;;;;;;6.30;2.95;;;;;;;;;;5031013;28;20029;-66
2023/10/11 03:51:48;;;;;;;4.63;2.60;;;;;;;;;;5025087;28;20045;-66
2023/10/11 03:54:24;;;;;;;4.93;2.60;;;;;;;;;;5028369;28;20093;-65
2023/10/11 03:56:53;;;;;;;3.75;2.38;;;;;;;;;;5031061;28;20037;-66
2023/10/11 03:59:20;;;;;;;4.43;2.53;;;;;;;;;;5021091;28;20816;-65
2023/10/11 04:01:47;;;;;;;4.15;2.30;;;;;;;;;;5023430;28;20060;-66
2023/10/11 04:04:13;;;;;;;5.15;2.25;;;;;;;;;;5028960;28;20040;-66
2023/10/11 04:06:39;;;;;;;4.78;2.75;;;;;;;;;;5025135;28;20291;-66
2023/10/11 04:09:22;;;;;;;5.68;3.17;;;;;;;;;;5030593;28;20022;-65
2023/10/11 04:11:54;;;;;;;4.20;3.33;;;;;;;;;;5021712;28;20040;-66
2023/10/11 04:14:24;;;;;;;3.10;2.35;;;;;;;;;;5029570;28;20480;-66
2023/10/11 04:16:56;;;;;;;5.38;2.80;;;;;;;;;;5024266;28;20488;-66
2023/10/11 04:19:22;;;;;;;2.95;2.20;;;;;;;;;;5027962;28;20025;-65
2023/10/11 04:24:20;;;;;;;3.25;2.40;;;;;;;;;;5026588;28;20156;-72
2023/10/11 04:27:45;;;;;;;2.22;1.60;;;;;;;;;;5019523;28;20176;-72
2023/10/11 04:29:38;;;;;;;5.13;1.10;;;;;;;;;;5045465;28;20061;-71
2023/10/11 04:32:09;;;;;;;1.10;1.10;;;;;;;;;;5029491;28;20048;-70
2023/10/11 04:34:38;;;;;;;0.90;0.90;;;;;;;;;;5026103;28;20037;-70
2023/10/11 04:37:16;;;;;;;0.90;0.90;;;;;;;;;;5019764;28;20673;-70
2023/10/11 04:39:56;;;;;;;0.90;0.90;;;;;;;;;;5027798;28;21875;-70
2023/10/11 04:42:27;;;;;;;0.98;0.98;;;;;;;;;;5027670;28;20030;-70
2023/10/11 04:44:57;;;;;;;0.90;0.90;;;;;;;;;;5025920;28;20028;-70
2023/10/11 04:47:24;;;;;;;0.88;0.88;;;;;;;;;;5024485;28;20451;-70
2023/10/11 04:49:54;;;;;;;0.80;0.80;;;;;;;;;;5029921;28;20025;-70
2023/10/11 04:52:23;;;;;;;2.35;0.93;;;;;;;;;;5030066;28;20503;-71
2023/10/11 04:54:54;;;;;;;0.88;0.88;;;;;;;;;;5035310;28;20500;-71
2023/10/11 04:57:48;;;;;;;0.98;0.98;;;;;;;;;;5031870;28;20898;-71
2023/10/11 05:00:18;;;;;;;1.33;1.23;;;;;;;;;;5031691;28;20036;-71
2023/10/11 05:02:51;;;;;;;1.30;1.20;;;;;;;;;;5026706;28;20029;-70
2023/10/11 05:05:19;;;;;;;1.00;1.00;;;;;;;;;;5051831;28;20033;-70
2023/10/11 05:07:46;;;;;;;1.00;1.00;;;;;;;;;;5017602;28;20022;-71
2023/10/11 05:13:04;;;;;;;1.05;1.05;;;;;;;;;;5019057;28;20265;-70
2023/10/11 05:15:34;;;;;;;0.95;0.95;;;;;;;;;;5021609;28;20040;-71
2023/10/11 05:18:06;;;;;;;1.00;1.00;;;;;;;;;;5022671;28;20124;-70
2023/10/11 05:23:11;;;;;;;;;;;;;;;;;;5023782;28;20036;-70
2023/10/11 05:25:59;;;;;;;0.90;0.90;;;;;;;;;;5022703;28;20444;-72
2023/10/11 05:28:27;;;;;;;2.10;1.30;;;;;;;;;;5023775;28;20052;-71
2023/10/11 05:33:45;;;;;;;1.00;1.00;;;;;;;;;;5021152;28;20065;-71
2023/10/11 05:36:17;;;;;;;0.98;0.98;;;;;;;;;;5017408;28;20116;-71
2023/10/11 05:52:28;;;;;;;0.73;0.73;;;;;;;;;;5019769;28;20079;-71
2023/10/11 05:54:55;;;;;;;1.00;1.00;;;;;;;;;;5013482;28;20030;-72
2023/10/11 05:57:27;;;;;;;1.00;1.00;;;;;;;;;;5018270;28;20025;-71
2023/10/11 05:59:53;;;;;;;1.00;1.00;;;;;;;;;;5020480;28;20709;-71
2023/10/11 06:02:20;;;;;;;1.02;1.02;;;;;;;;;;5022145;28;20030;-71
2023/10/11 06:04:46;;;;;;;1.25;1.15;;;;;;;;;;5018887;28;20501;-71
2023/10/11 06:07:13;;;;;;;1.15;1.10;;;;;;;;;;5018901;28;20800;-71
2023/10/11 06:09:43;;;;;;;0.98;0.98;;;;;;;;;;5015466;28;20533;-72
2023/10/11 06:12:22;;;;;;;1.30;1.20;;;;;;;;;;5009359;28;20036;-73
2023/10/11 06:14:52;;;;;;;2.05;1.60;;;;;;;;;;5012727;28;20043;-74
2023/10/11 06:17:21;;;;;;;1.98;1.40;;;;;;;;;;5016893;28;20029;-73
2023/10/11 06:19:54;;;;;;;1.77;1.33;;;;;;;;;;5017860;28;20314;-66
2023/10/11 06:22:21;;;;;;;1.23;1.20;;;;;;;;;;5018652;28;20235;-67
2023/10/11 06:24:48;;;;;;;1.45;1.30;;;;;;;;;;5016192;28;20033;-67
2023/10/11 06:29:46;;;;;;;2.92;1.63;;;;;;;;;;5016645;28;20026;-68
2023/10/11 06:32:12;;;;;;;1.98;1.33;;;;;;;;;;5017331;28;20053;-67
2023/10/11 06:34:39;;;;;;;1.67;1.55;;;;;;;;;;5018924;28;20044;-68
2023/10/11 06:37:08;;;;;;;1.58;1.48;;;;;;;;;;5016960;28;20078;-68
2023/10/11 06:42:14;;;;;;;1.92;1.50;;;;;;;;;;5015423;28;20048;-68
2023/10/11 06:44:47;;;;;;;1.90;1.50;;;;;;;;;;5041612;28;20087;-69
2023/10/11 06:47:14;;;;;;;2.85;1.75;;;;;;;;;;5010097;28;20053;-69
2023/10/11 06:49:53;;;;;;;2.55;1.70;;;;;;;;;;5009344;28;20110;-69
2023/10/11 06:52:25;;;;;;;2.25;1.60;;;;;;;;;;5011734;28;20807;-72
2023/10/11 06:55:07;;;;;;;4.53;2.13;;;;;;;;;;5015389;28;20033;-72
2023/10/11 06:57:39;;;;;;;3.88;1.83;;;;;;;;;;5010784;28;20041;-72
2023/10/11 07:00:25;;;;;;;2.42;1.83;;;;;;;;;;5015964;28;20153;-72
2023/10/11 07:02:52;;;;;;;8.23;3.72;;;;;;;;;;5015095;28;20056;-74
2023/10/11 07:05:20;;;;;;;5.45;2.05;;;;;;;;;;5031293;28;20077;-72
2023/10/11 07:07:52;;;;;;;3.45;2.30;;;;;;;;;;5017610;28;20014;-72
2023/10/11 07:11:19;;;;;;;6.35;2.38;;;;;;;;;;5015272;28;20489;-71
2023/10/11 07:13:14;;;;;;;4.03;2.00;;;;;;;;;;5027694;28;20079;-71
2023/10/11 07:15:44;;;;;;;4.38;2.20;;;;;;;;;;5019880;28;20090;-72
2023/10/11 07:18:13;;;;;;;5.55;2.58;;;;;;;;;;5014670;28;20037;-71
2023/10/11 07:20:58;;;;;;;6.55;2.20;;;;;;;;;;5006843;28;20696;-70
2023/10/11 07:23:26;;;;;;;5.22;2.40;;;;;;;;;;5007364;28;20030;-67
2023/10/11 07:25:59;;;;;;;4.70;2.30;;;;;;;;;;5013459;28;20032;-70
2023/10/11 07:28:37;;;;;;;3.83;2.15;;;;;;;;;;5014397;28;20396;-74
2023/10/11 07:31:04;;;;;;;4.68;2.40;;;;;;;;;;5016175;28;20643;-73
2023/10/11 07:33:55;;;;;;;9.82;3.20;;;;;;;;;;5011021;28;20088;-69
2023/10/11 07:37:03;;;;;;;7.90;3.35;;;;;;;;;;5007936;28;20033;-71
2023/10/11 07:39:33;;;;;;;9.20;2.50;;;;;;;;;;5011836;28;20072;-73
2023/10/11 07:42:09;;;;;;;8.20;2.80;;;;;;;;;;5012030;28;20065;-73
2023/10/11 07:44:40;;;;;;;6.18;2.88;;;;;;;;;;5011175;28;20536;-73
2023/10/11 07:47:08;;;;;;;11.70;2.65;;;;;;;;;;5010313;28;20041;-74
2023/10/11 07:49:43;;;;;;;10.55;3.10;;;;;;;;;;5011909;28;20112;-73
2023/10/11 07:52:09;;;;;;;;;;;;;;;;;;5010800;28;20073;-76
2023/10/11 07:54:41;;;;;;;10.07;3.28;;;;;;;;;;5010145;28;20737;-75
2023/10/11 07:57:13;;;;;;;10.23;3.47;;;;;;;;;;5017494;28;20095;-74
2023/10/11 07:59:39;;;;;;;7.65;2.97;;;;;;;;;;5016021;28;20033;-77
2023/10/11 08:02:26;;;;;;;9.23;3.10;;;;;;;;;;5012033;28;20056;-74
2023/10/11 08:04:53;;;;;;;14.60;3.10;;;;;;;;;;5019674;28;20057;-73
2023/10/11 08:07:21;;;;;;;9.63;3.08;;;;;;;;;;5016176;28;20038;-72
2023/10/11 08:09:52;;;;;;;12.18;3.03;;;;;;;;;;5018334;28;20026;-72
2023/10/11 08:12:20;;;;;;;12.48;3.33;;;;;;;;;;5011047;28;20052;-72
2023/10/11 08:14:47;;;;;;;9.43;2.80;;;;;;;;;;5016298;28;20132;-73
2023/10/11 08:17:13;;;;;;;6.78;2.50;;;;;;;;;;5013010;28;20040;-74
2023/10/11 08:19:44;;;;;;;11.80;3.65;;;;;;;;;;5018416;28;20014;-73
2023/10/11 08:22:19;;;;;;;12.02;3.10;;;;;;;;;;5019364;28;20029;-74
2023/10/11 08:24:47;;;;;;;10.35;3.28;;;;;;;;;;5016503;28;20041;-73
2023/10/11 08:27:14;;;;;;;8.57;2.92;;;;;;;;;;5018113;28;20124;-72
2023/10/11 08:29:43;;;;;;;6.82;2.58;;;;;;;;;;5021707;28;20091;-73
2023/10/11 08:32:13;;;;;;;14.30;3.13;;;;;;;;;;5021296;28;20028;-74
2023/10/11 08:34:46;;;;;;;12.75;2.95;;;;;;;;;;5018137;28;20038;-71
2023/10/11 08:37:12;;;;;;;9.30;2.97;;;;;;;;;;5014713;28;20068;-73
2023/10/11 08:39:44;;;;;;;9.55;3.55;;;;;;;;;;5014961;28;20036;-71
2023/10/11 08:42:14;;;;;;;12.27;2.72;;;;;;;;;;5013172;28;20083;-72
2023/10/11 08:44:45;;;;;;;9.35;3.70;;;;;;;;;;5013775;28;20025;-72
2023/10/11 08:47:19;;;;;;;17.73;3.58;;;;;;;;;;5011105;28;20651;-74
2023/10/11 08:49:48;;;;;;;12.18;3.28;;;;;;;;;;5009623;28;20055;-73
2023/10/11 08:52:23;;;;;;;10.85;3.78;;;;;;;;;;5012865;28;20034;-73
2023/10/11 08:54:49;;;;;;;13.60;3.17;;;;;;;;;;5009397;28;20083;-74
2023/10/11 08:57:25;;;;;;;19.02;4.18;;;;;;;;;;5007507;28;20433;-73
2023/10/11 08:59:59;;;;;;;11.25;3.10;;;;;;;;;;5023492;28;20703;-73
2023/10/11 09:02:33;;;;;;;12.30;3.13;;;;;;;;;;5001088;28;20904;-72
2023/10/11 09:05:06;;;;;;;16.02;4.32;;;;;;;;;;5005276;28;20071;-72
2023/10/11 09:07:44;;;;;;;14.80;5.75;;;;;;;;;;5011594;28;20034;-71
2023/10/11 09:10:24;;;;;;;12.07;3.20;;;;;;;;;;5015266;28;20037;-70
2023/10/11 09:12:56;;;;;;;16.65;3.58;;;;;;;;;;5014629;28;20373;-70
2023/10/11 09:15:23;;;;;;;7.45;2.65;;;;;;;;;;5008090;28;20037;-76
2023/10/11 09:17:50;;;;;;;12.52;3.58;;;;;;;;;;5008952;28;20624;-77
2023/10/11 09:20:23;;;;;;;12.68;3.80;;;;;;;;;;5015794;28;20026;-68
2023/10/11 09:22:55;;;;;;;11.98;3.47;;;;;;;;;;5016338;28;20507;-75
2023/10/11 09:25:24;;;;;;;20.38;4.10;;;;;;;;;;5012472;28;20082;-70
2023/10/11 09:27:50;;;;;;;9.65;3.85;;;;;;;;;;5012973;28;20042;-72
2023/10/11 09:30:21;;;;;;;18.50;4.15;;;;;;;;;;5006909;28;21040;-72
2023/10/11 09:32:51;;;;;;;10.50;2.72;;;;;;;;;;5007651;28;20044;-72
2023/10/11 09:35:27;;;;;;;12.73;3.67;;;;;;;;;;5027703;28;20125;-72
2023/10/11 09:37:57;;;;;;;11.48;3.28;;;;;;;;;;5011307;28;20334;-72
2023/10/11 09:40:27;;;;;;;11.13;4.60;;;;;;;;;;5010302;28;20103;-74
2023/10/11 09:42:56;;;;;;;14.20;3.75;;;;;;;;;;5009556;28;20311;-70
2023/10/11 09:45:23;;;;;;;8.57;3.38;;;;;;;;;;5010349;28;20044;-66
2023/10/11 09:47:54;;;;;;;13.63;3.40;;;;;;;;;;5011939;28;20033;-70
2023/10/11 09:50:22;;;;;;;11.75;3.83;;;;;;;;;;5012751;28;20077;-72
2023/10/11 09:52:51;;;;;;;14.30;4.18;;;;;;;;;;5012891;28;20033;-72
2023/10/11 09:55:20;;;;;;;15.60;4.65;;;;;;;;;;5006696;28;20025;-72
2023/10/11 09:58:17;;;;;;;9.85;3.40;;;;;;;;;;5008660;28;20112;-75
2023/10/11 10:01:08;;;;;;;14.43;3.75;;;;;;;;;;5029704;28;20838;-71
2023/10/11 10:03:38;;;;;;;12.57;5.30;;;;;;;;;;5017868;28;20044;-69
2023/10/11 10:06:21;;;;;;;8.30;3.67;;;;;;;;;;5017336;28;20026;-70
2023/10/11 10:09:24;;;;;;;9.77;2.95;;;;;;;;;;5021967;28;20106;-72
2023/10/11 10:12:05;;;;;;;15.80;4.78;;;;;;;;;;5009747;28;20022;-73
2023/10/11 10:14:35;;;;;;;15.05;3.72;;;;;;;;;;5019728;28;20033;-72
2023/10/11 10:17:15;;;;;;;15.13;3.58;;;;;;;;;;5036354;28;20033;-70
2023/10/11 10:19:46;;;;;;;13.40;3.83;;;;;;;;;;5016072;28;20032;-64
2023/10/11 10:22:15;;;;;;;12.32;3.85;;;;;;;;;;5015765;28;20666;-64
2023/10/11 10:24:45;;;;;;;12.20;3.35;;;;;;;;;;5013220;28;20025;-64
2023/10/11 10:27:35;;;;;;;9.55;3.30;;;;;;;;;;5013922;28;20824;-63
2023/10/11 10:30:04;;;;;;;8.40;3.47;;;;;;;;;;5016289;28;20587;-65
2023/10/11 10:32:30;;;;;;;15.75;4.30;;;;;;;;;;5014518;28;20056;-65
2023/10/11 10:35:19;;;;;;;10.85;3.70;;;;;;;;;;5012136;28;20082;-65
2023/10/11 10:37:48;;;;;;;16.52;4.03;;;;;;;;;;5010650;28;20426;-65
2023/10/11 10:40:24;;;;;;;13.35;2.97;;;;;;;;;;5012858;28;20120;-65
2023/10/11 10:43:20;;;;;;;13.90;3.85;;;;;;;;;;5013681;28;20088;-66
2023/10/11 10:45:51;;;;;;;8.73;3.97;;;;;;;;;;5013535;28;20029;-71
2023/10/11 10:48:18;;;;;;;12.57;4.93;;;;;;;;;;5018388;28;20037;-70
2023/10/11 10:51:01;;;;;;;16.50;3.42;;;;;;;;;;5019795;28;20604;-67
2023/10/11 10:53:37;;;;;;;14.32;3.38;;;;;;;;;;5016658;28;20026;-70
2023/10/11 10:56:03;;;;;;;10.77;4.63;;;;;;;;;;5019551;28;20167;-72
2023/10/11 10:58:30;;;;;;;12.52;3.90;;;;;;;;;;5021233;28;20022;-69
2023/10/11 11:00:59;;;;;;;12.48;3.30;;;;;;;;;;5019532;28;20101;-71
2023/10/11 11:03:32;;;;;;;16.30;4.20;;;;;;;;;;5022468;28;20029;-70
2023/10/11 11:06:02;;;;;;;18.17;4.60;;;;;;;;;;5015562;28;20032;-72
2023/10/11 11:08:31;;;;;;;12.63;4.63;;;;;;;;;;5017580;28;20022;-71
2023/10/11 11:11:25;;;;;;;10.45;4.07;;;;;;;;;;5018304;28;20026;-66
2023/10/11 11:13:51;;;;;;;7.97;2.90;;;;;;;;;;5017477;28;20675;-66
2023/10/11 11:16:26;;;;;;;14.55;3.10;;;;;;;;;;5014412;28;20083;-66
2023/10/11 11:18:52;;;;;;;9.73;2.70;;;;;;;;;;5016943;28;20026;-66
2023/10/11 11:21:26;;;;;;;6.47;3.38;;;;;;;;;;5017145;28;20041;-67
2023/10/11 11:23:53;;;;;;;12.95;4.03;;;;;;;;;;5010711;28;20036;-67
2023/10/11 11:26:21;;;;;;;9.20;2.65;;;;;;;;;;5028799;28;20021;-66
2023/10/11 11:28:48;;;;;;;12.57;3.88;;;;;;;;;;5004955;28;20118;-66
2023/10/11 11:34:05;;;;;;;8.15;2.55;;;;;;;;;;5018772;28;20041;-67
2023/10/11 11:36:40;;;;;;;11.95;3.17;;;;;;;;;;5020821;28;20134;-66
2023/10/11 11:39:25;;;;;;;9.85;3.35;;;;;;;;;;5016960;28;20025;-68
2023/10/11 11:41:55;;;;;;;12.68;3.28;;;;;;;;;;5021554;28;20440;-66
2023/10/11 11:44:27;;;;;;;6.88;3.67;;;;;;;;;;5018030;28;20060;-66
2023/10/11 11:46:54;;;;;;;6.88;3.30;;;;;;;;;;5022127;28;20083;-66
2023/10/11 11:49:24;;;;;;;12.60;3.78;;;;;;;;;;5018380;28;20033;-69
2023/10/11 11:51:55;;;;;;;12.88;3.90;;;;;;;;;;5017325;28;20454;-69
2023/10/11 11:54:26;;;;;;;9.85;4.22;;;;;;;;;;5019541;28;20112;-66
2023/10/11 11:56:54;;;;;;;11.57;3.88;;;;;;;;;;5019846;28;20037;-66
2023/10/11 11:59:21;;;;;;;11.60;3.30;;;;;;;;;;5023001;28;20163;-66
2023/10/11 12:01:56;;;;;;;10.25;3.30;;;;;;;;;;5025364;28;20034;-66
2023/10/11 12:04:29;;;;;;;11.20;2.65;;;;;;;;;;5024012;28;20044;-66
2023/10/11 12:07:09;;;;;;;9.18;3.38;;;;;;;;;;5029319;28;20863;-69
2023/10/11 12:09:35;;;;;;;12.48;3.80;;;;;;;;;;5031473;28;20021;-68
2023/10/11 12:12:04;;;;;;;9.23;3.58;;;;;;;;;;5024200;28;20041;-69
2023/10/11 12:14:31;;;;;;;10.45;3.33;;;;;;;;;;5024246;28;20033;-69
2023/10/11 12:16:57;;;;;;;13.07;4.07;;;;;;;;;;5020693;28;20026;-69
2023/10/11 12:19:25;;;;;;;12.48;3.22;;;;;;;;;;5029302;28;20089;-68
2023/10/11 12:21:57;;;;;;;11.90;3.17;;;;;;;;;;5019920;28;20029;-65
2023/10/11 12:24:26;;;;;;;6.85;2.80;;;;;;;;;;5029640;28;20029;-64
2023/10/11 12:26:57;;;;;;;8.15;2.90;;;;;;;;;;5018281;28;20026;-68
2023/10/11 12:29:26;;;;;;;11.55;4.03;;;;;;;;;;5013832;28;20037;-68
2023/10/11 12:31:55;;;;;;;10.85;3.13;;;;;;;;;;5022009;28;20665;-65
2023/10/11 12:34:25;;;;;;;9.30;3.15;;;;;;;;;;5029199;28;20047;-66
2023/10/11 12:36:53;;;;;;;15.73;4.00;;;;;;;;;;5015848;28;20084;-65
2023/10/11 12:39:29;;;;;;;12.40;3.63;;;;;;;;;;5040562;28;20041;-72
2023/10/11 12:41:59;;;;;;;8.30;3.67;;;;;;;;;;5013303;28;20025;-66
2023/10/11 12:44:28;;;;;;;10.95;3.28;;;;;;;;;;5013062;28;20033;-67
2023/10/11 12:46:54;;;;;;;11.63;4.43;;;;;;;;;;5015047;28;20025;-73
2023/10/11 12:49:24;;;;;;;11.45;3.50;;;;;;;;;;5009542;28;20036;-74
2023/10/11 12:51:52;;;;;;;7.18;3.75;;;;;;;;;;5026088;28;20034;-74
2023/10/11 12:54:19;;;;;;;12.02;3.53;;;;;;;;;;5013210;28;20032;-74
2023/10/11 12:56:46;;;;;;;7.38;2.83;;;;;;;;;;5014432;28;20033;-73
2023/10/11 12:59:13;;;;;;;6.22;2.83;;;;;;;;;;5026822;28;20040;-65
2023/10/11 13:01:57;;;;;;;11.35;3.08;;;;;;;;;;5014879;28;20029;-68
2023/10/11 13:04:24;;;;;;;10.75;5.43;;;;;;;;;;5016989;28;20492;-66
2023/10/11 13:06:50;;;;;;;5.85;3.25;;;;;;;;;;5011129;28;20124;-69
2023/10/11 13:09:21;;;;;;;11.35;2.95;;;;;;;;;;5016884;28;20030;-66
2023/10/11 13:11:47;;;;;;;8.57;4.38;;;;;;;;;;5011142;28;20567;-65
2023/10/11 13:14:20;;;;;;;8.82;5.50;;;;;;;;;;5016225;28;20355;-65
2023/10/11 13:16:48;;;;;;;10.95;3.83;;;;;;;;;;5011966;28;20811;-65
2023/10/11 13:19:17;;;;;;;6.15;3.20;;;;;;;;;;5015257;28;20702;-65
2023/10/11 13:21:48;;;;;;;7.00;2.95;;;;;;;;;;5017268;28;20040;-65
2023/10/11 13:24:16;;;;;;;12.55;3.85;;;;;;;;;;5015611;28;20116;-66
2023/10/11 13:26:46;;;;;;;7.50;3.47;;;;;;;;;;5017952;28;20067;-65
2023/10/11 13:29:18;;;;;;;10.10;3.00;;;;;;;;;;5014547;28;20028;-72
2023/10/11 13:31:48;;;;;;;10.00;3.08;;;;;;;;;;5012297;28;20402;-65
2023/10/11 13:34:17;;;;;;;7.20;2.90;;;;;;;;;;5014713;28;20528;-65
2023/10/11 13:36:44;;;;;;;6.95;3.03;;;;;;;;;;5013798;28;20099;-68
2023/10/11 13:39:25;;;;;;;9.90;3.47;;;;;;;;;;5013423;28;20034;-67
2023/10/11 13:42:12;;;;;;;7.18;3.17;;;;;;;;;;5010888;28;20045;-67
2023/10/11 13:44:39;;;;;;;12.45;4.47;;;;;;;;;;5015970;28;20500;-66
2023/10/11 13:47:09;;;;;;;7.18;2.67;;;;;;;;;;5013294;28;20029;-67
2023/10/11 13:49:37;;;;;;;16.58;7.55;;;;;;;;;;5013769;28;20489;-68
2023/10/11 13:52:04;;;;;;;12.90;6.43;;;;;;;;;;5017907;28;20030;-71
2023/10/11 13:57:10;;;;;;;11.10;5.47;;;;;;;;;;5044618;28;20064;-72
2023/10/11 13:59:37;;;;;;;9.63;5.20;;;;;;;;;;5015320;28;20029;-73
2023/10/11 14:04:49;;;;;;;10.55;3.70;;;;;;;;;;5021228;28;20053;-72
2023/10/11 14:10:01;;;;;;;11.18;4.55;;;;;;;;;;5017426;28;20049;-74
2023/10/11 14:12:35;;;;;;;13.25;5.75;;;;;;;;;;5030653;28;20029;-70
2023/10/11 14:15:06;;;;;;;16.67;6.35;;;;;;;;;;5017377;28;20124;-68
2023/10/11 14:17:38;;;;;;;8.48;3.80;;;;;;;;;;5013600;28;20034;-71
2023/10/11 14:20:05;;;;;;;12.82;5.78;;;;;;;;;;5018391;28;20076;-68
2023/10/11 14:22:32;;;;;;;9.23;4.45;;;;;;;;;;5019819;28;20033;-71
2023/10/11 14:25:07;;;;;;;11.07;4.32;;;;;;;;;;5017867;28;20469;-72
2023/10/11 14:27:33;;;;;;;10.93;3.28;;;;;;;;;;5008327;28;20029;-74
2023/10/11 14:30:00;;;;;;;9.40;4.30;;;;;;;;;;5019041;28;20022;-71
2023/10/11 14:32:26;;;;;;;7.82;2.97;;;;;;;;;;5026259;28;20029;-72
2023/10/11 14:34:52;;;;;;;11.30;3.17;;;;;;;;;;5011042;28;20040;-70
2023/10/11 14:37:19;;;;;;;7.75;2.88;;;;;;;;;;5015931;28;20087;-65
2023/10/11 14:39:48;;;;;;;8.07;3.63;;;;;;;;;;5012080;28;20527;-64
2023/10/11 14:42:15;;;;;;;4.57;2.45;;;;;;;;;;5010941;28;20615;-74
2023/10/11 14:44:45;;;;;;;6.10;2.45;;;;;;;;;;5009718;28;20156;-64
2023/10/11 14:47:13;;;;;;;4.72;2.60;;;;;;;;;;5011699;28;20529;-64
2023/10/11 14:49:40;;;;;;;7.70;2.40;;;;;;;;;;5027998;28;20056;-63
2023/10/11 14:52:14;;;;;;;6.90;2.15;;;;;;;;;;5009894;28;20033;-65
2023/10/11 14:54:42;;;;;;;6.45;2.25;;;;;;;;;;5024982;28;20071;-64
2023/10/11 14:57:09;;;;;;;7.35;2.47;;;;;;;;;;5013839;28;20037;-65
2023/10/11 14:59:35;;;;;;;5.88;2.53;;;;;;;;;;5009562;28;20044;-64
2023/10/11 15:02:05;;;;;;;6.30;2.42;;;;;;;;;;5008965;28;20136;-65
2023/10/11 15:04:35;;;;;;;12.43;3.28;;;;;;;;;;5003879;28;20421;-64
2023/10/11 15:07:06;;;;;;;6.05;2.83;;;;;;;;;;5012430;28;20506;-65
2023/10/11 15:09:33;;;;;;;6.35;2.70;;;;;;;;;;5015805;28;20037;-68
2023/10/11 15:12:00;;;;;;;6.38;2.67;;;;;;;;;;5022393;28;20096;-65
2023/10/11 15:14:26;;;;;;;7.28;2.60;;;;;;;;;;5013497;28;20025;-72
2023/10/11 15:16:52;;;;;;;9.88;2.80;;;;;;;;;;5016895;28;20034;-63
2023/10/11 15:19:19;;;;;;;4.03;2.13;;;;;;;;;;5013580;28;20033;-71
2023/10/11 15:21:45;;;;;;;7.70;2.13;;;;;;;;;;5016119;28;20057;-71
2023/10/11 15:24:13;;;;;;;8.50;2.58;;;;;;;;;;5015707;28;20034;-71
2023/10/11 15:26:40;;;;;;;5.32;2.20;;;;;;;;;;5019569;28;20553;-71
2023/10/11 15:29:06;;;;;;;5.60;2.30;;;;;;;;;;5013309;28;20025;-71
2023/10/11 15:31:33;;;;;;;5.93;2.10;;;;;;;;;;5016795;28;20030;-70
2023/10/11 15:34:07;;;;;;;7.13;3.17;;;;;;;;;;5020144;28;20030;-72
2023/10/11 15:36:34;;;;;;;9.07;2.60;;;;;;;;;;5018654;28;20038;-71
2023/10/11 15:39:00;;;;;;;6.38;2.30;;;;;;;;;;5017068;28;20482;-70
2023/10/11 15:41:29;;;;;;;7.00;2.05;;;;;;;;;;5021896;28;20046;-72
2023/10/11 15:43:55;;;;;;;12.60;2.83;;;;;;;;;;5015069;28;20052;-72
2023/10/11 15:46:21;;;;;;;6.30;2.70;;;;;;;;;;5012501;28;20026;-70
2023/10/11 15:48:49;;;;;;;5.75;2.42;;;;;;;;;;5004305;28;20129;-73